This is the latest recevied weather packets stored in our database for station/object KQ4HEI. If no packets are shown the sender has not sent any weather packets the latest 10 day(s).
| Time | Temp. | Humidity | Pressure | Rain* | Wind** | Luminosity | Snow |
|---|---|---|---|---|---|---|---|
| 1788333730 | 22.78° C | 99% | 1015.1 hPa | 0 mm | - | - | - |
| 1788333693 | 22.78° C | 99% | 1015.1 hPa | 0 mm | - | - | - |
| 1788333092 | 22.78° C | 99% | 1015.2 hPa | 0 mm | - | - | - |
| 1788332492 | 22.78° C | 99% | 1015.2 hPa | 0 mm | - | - | - |
| 1788331891 | 23.33° C | 99% | 1015.1 hPa | 0 mm | - | - | - |
| 1788331292 | 23.33° C | 99% | 1015.2 hPa | 0 mm | - | - | - |
| 1788330692 | 23.33° C | 99% | 1015.2 hPa | 0 mm | - | - | - |
| 1788330093 | 23.33° C | 99% | 1015.2 hPa | 0 mm | - | - | - |
| 1788329492 | 23.33° C | 99% | 1015.3 hPa | 0 mm | - | - | - |
| 1788328892 | 23.33° C | 99% | 1015.4 hPa | 0 mm | - | - | - |
| 1788328292 | 23.33° C | 99% | 1015.4 hPa | 0 mm | - | - | - |
| 1788327692 | 23.89° C | 99% | 1015.5 hPa | 0 mm | - | - | - |
| 1788327092 | 23.89° C | 99% | 1015.6 hPa | 0 mm | - | - | - |
| 1788326492 | 23.89° C | 99% | 1015.6 hPa | 0 mm | - | - | - |
| 1788325892 | 23.89° C | 99% | 1015.7 hPa | 0 mm | - | - | - |
| 1788325292 | 23.89° C | 99% | 1015.8 hPa | 0 mm | - | - | - |
| 1788324692 | 24.44° C | 99% | 1015.9 hPa | 0 mm | - | - | - |
| 1788323492 | 24.44° C | 99% | 1015.9 hPa | 0 mm | - | - | - |
| 1788292892 | 36.11° C | 56% | 1014.5 hPa | 0 mm | - | - | - |
| 1788292292 | 36.11° C | 57% | 1014.5 hPa | 0 mm | - | - | - |
| 1788287492 | 36.11° C | 57% | 1015.6 hPa | 0 mm | - | - | - |
| 1788286892 | 34.44° C | 62% | 1015.7 hPa | 0 mm | - | - | - |
| 1788286291 | 36.11° C | 58% | 1016 hPa | 0 mm | - | - | - |
| 1788284492 | 35.56° C | 60% | 1016.3 hPa | 0 mm | - | - | - |
| 1788283891 | 35.56° C | 60% | 1016.5 hPa | 0 mm | - | - | - |
* Rain latest hour (hover to see other rain measurements)
** Current wind speed in m/s (hover to see current wind gust speed)